sensor_id;sensor_type;location;lat;lon;timestamp;P1;durP1;ratioP1;P2;durP2;ratioP2
22679;SDS011;11507;44.858;10.374;2024-03-29T00:01:28;265.40;;;18.13;;
22679;SDS011;11507;44.858;10.374;2024-03-29T00:03:54;49.92;;;13.27;;
22679;SDS011;11507;44.858;10.374;2024-03-29T00:06:20;220.18;;;17.73;;
22679;SDS011;11507;44.858;10.374;2024-03-29T00:08:46;117.93;;;15.82;;
22679;SDS011;11507;44.858;10.374;2024-03-29T00:11:13;48.00;;;13.13;;
22679;SDS011;11507;44.858;10.374;2024-03-29T00:13:39;21.10;;;12.52;;
22679;SDS011;11507;44.858;10.374;2024-03-29T00:16:06;28.20;;;14.63;;
22679;SDS011;11507;44.858;10.374;2024-03-29T00:18:33;25.73;;;13.35;;
22679;SDS011;11507;44.858;10.374;2024-03-29T00:21:00;36.97;;;12.35;;
22679;SDS011;11507;44.858;10.374;2024-03-29T00:23:26;56.67;;;12.13;;
22679;SDS011;11507;44.858;10.374;2024-03-29T00:25:53;70.47;;;11.95;;
22679;SDS011;11507;44.858;10.374;2024-03-29T00:28:23;43.38;;;10.45;;
22679;SDS011;11507;44.858;10.374;2024-03-29T00:30:50;70.53;;;9.95;;
22679;SDS011;11507;44.858;10.374;2024-03-29T00:33:16;32.45;;;9.60;;
22679;SDS011;11507;44.858;10.374;2024-03-29T00:35:42;16.35;;;9.07;;
22679;SDS011;11507;44.858;10.374;2024-03-29T00:38:08;14.95;;;9.35;;
22679;SDS011;11507;44.858;10.374;2024-03-29T00:40:37;16.88;;;10.10;;
22679;SDS011;11507;44.858;10.374;2024-03-29T00:43:03;30.80;;;11.05;;
22679;SDS011;11507;44.858;10.374;2024-03-29T00:45:30;17.52;;;9.15;;
22679;SDS011;11507;44.858;10.374;2024-03-29T00:47:56;13.30;;;8.48;;
22679;SDS011;11507;44.858;10.374;2024-03-29T00:50:22;32.90;;;9.43;;
22679;SDS011;11507;44.858;10.374;2024-03-29T00:52:49;13.38;;;8.73;;
22679;SDS011;11507;44.858;10.374;2024-03-29T00:55:15;21.38;;;9.30;;
22679;SDS011;11507;44.858;10.374;2024-03-29T00:57:42;67.65;;;9.93;;
22679;SDS011;11507;44.858;10.374;2024-03-29T01:00:08;56.03;;;9.70;;
22679;SDS011;11507;44.858;10.374;2024-03-29T01:02:38;48.17;;;12.07;;
22679;SDS011;11507;44.858;10.374;2024-03-29T01:05:05;24.45;;;10.85;;
22679;SDS011;11507;44.858;10.374;2024-03-29T01:07:31;50.30;;;10.40;;
22679;SDS011;11507;44.858;10.374;2024-03-29T01:09:58;22.38;;;10.88;;
22679;SDS011;11507;44.858;10.374;2024-03-29T01:12:24;27.52;;;14.40;;
22679;SDS011;11507;44.858;10.374;2024-03-29T01:14:50;45.65;;;13.93;;
22679;SDS011;11507;44.858;10.374;2024-03-29T01:17:16;64.68;;;13.07;;
22679;SDS011;11507;44.858;10.374;2024-03-29T01:19:43;40.97;;;11.43;;
22679;SDS011;11507;44.858;10.374;2024-03-29T01:22:11;33.45;;;11.70;;
22679;SDS011;11507;44.858;10.374;2024-03-29T01:24:37;32.92;;;12.70;;
22679;SDS011;11507;44.858;10.374;2024-03-29T01:27:04;25.15;;;12.77;;
22679;SDS011;11507;44.858;10.374;2024-03-29T01:29:32;27.23;;;13.23;;
22679;SDS011;11507;44.858;10.374;2024-03-29T01:31:59;21.30;;;11.30;;
22679;SDS011;11507;44.858;10.374;2024-03-29T01:34:25;29.80;;;11.55;;
22679;SDS011;11507;44.858;10.374;2024-03-29T01:36:52;22.85;;;11.80;;
22679;SDS011;11507;44.858;10.374;2024-03-29T01:39:18;23.30;;;10.85;;
22679;SDS011;11507;44.858;10.374;2024-03-29T01:41:48;26.38;;;10.95;;
22679;SDS011;11507;44.858;10.374;2024-03-29T01:44:14;37.88;;;12.20;;
22679;SDS011;11507;44.858;10.374;2024-03-29T01:46:41;19.35;;;10.70;;
22679;SDS011;11507;44.858;10.374;2024-03-29T01:49:07;57.65;;;11.98;;
22679;SDS011;11507;44.858;10.374;2024-03-29T01:51:36;37.20;;;11.13;;
22679;SDS011;11507;44.858;10.374;2024-03-29T01:54:05;32.03;;;11.63;;
22679;SDS011;11507;44.858;10.374;2024-03-29T01:56:34;39.35;;;11.00;;
22679;SDS011;11507;44.858;10.374;2024-03-29T01:59:01;36.47;;;12.32;;
22679;SDS011;11507;44.858;10.374;2024-03-29T02:01:30;22.83;;;12.25;;
22679;SDS011;11507;44.858;10.374;2024-03-29T02:03:56;23.83;;;11.25;;
22679;SDS011;11507;44.858;10.374;2024-03-29T02:06:22;49.95;;;12.38;;
22679;SDS011;11507;44.858;10.374;2024-03-29T02:08:49;23.88;;;10.75;;
22679;SDS011;11507;44.858;10.374;2024-03-29T02:11:19;24.83;;;10.77;;
22679;SDS011;11507;44.858;10.374;2024-03-29T02:13:46;40.42;;;11.23;;
22679;SDS011;11507;44.858;10.374;2024-03-29T02:16:13;20.00;;;10.38;;
22679;SDS011;11507;44.858;10.374;2024-03-29T02:18:40;21.20;;;10.32;;
22679;SDS011;11507;44.858;10.374;2024-03-29T02:21:06;16.33;;;10.10;;
22679;SDS011;11507;44.858;10.374;2024-03-29T02:23:34;37.80;;;11.73;;
22679;SDS011;11507;44.858;10.374;2024-03-29T02:26:03;43.03;;;12.70;;
22679;SDS011;11507;44.858;10.374;2024-03-29T02:28:30;48.85;;;12.30;;
22679;SDS011;11507;44.858;10.374;2024-03-29T02:30:56;88.10;;;13.98;;
22679;SDS011;11507;44.858;10.374;2024-03-29T02:33:22;45.92;;;12.60;;
22679;SDS011;11507;44.858;10.374;2024-03-29T02:35:48;21.05;;;12.32;;
22679;SDS011;11507;44.858;10.374;2024-03-29T02:40:41;28.07;;;12.60;;
22679;SDS011;11507;44.858;10.374;2024-03-29T02:43:07;25.73;;;12.15;;
22679;SDS011;11507;44.858;10.374;2024-03-29T02:45:33;33.25;;;11.35;;
22679;SDS011;11507;44.858;10.374;2024-03-29T02:48:00;76.18;;;14.20;;
22679;SDS011;11507;44.858;10.374;2024-03-29T02:50:26;53.55;;;13.35;;
22679;SDS011;11507;44.858;10.374;2024-03-29T02:52:52;24.58;;;12.07;;
22679;SDS011;11507;44.858;10.374;2024-03-29T02:55:18;48.95;;;13.90;;
22679;SDS011;11507;44.858;10.374;2024-03-29T02:57:45;26.20;;;13.88;;
22679;SDS011;11507;44.858;10.374;2024-03-29T03:00:11;86.10;;;17.42;;
22679;SDS011;11507;44.858;10.374;2024-03-29T03:02:38;47.70;;;14.75;;
22679;SDS011;11507;44.858;10.374;2024-03-29T03:05:06;46.88;;;12.65;;
22679;SDS011;11507;44.858;10.374;2024-03-29T03:07:33;46.00;;;11.75;;
22679;SDS011;11507;44.858;10.374;2024-03-29T03:10:18;26.52;;;11.30;;
22679;SDS011;11507;44.858;10.374;2024-03-29T03:13:03;48.65;;;12.82;;
22679;SDS011;11507;44.858;10.374;2024-03-29T03:15:29;20.02;;;11.20;;
22679;SDS011;11507;44.858;10.374;2024-03-29T03:17:56;24.35;;;13.30;;
22679;SDS011;11507;44.858;10.374;2024-03-29T03:20:22;30.73;;;12.95;;
22679;SDS011;11507;44.858;10.374;2024-03-29T03:22:50;23.70;;;11.50;;
22679;SDS011;11507;44.858;10.374;2024-03-29T03:25:17;26.02;;;12.00;;
22679;SDS011;11507;44.858;10.374;2024-03-29T03:27:43;28.40;;;13.75;;
22679;SDS011;11507;44.858;10.374;2024-03-29T03:30:10;27.63;;;13.88;;
22679;SDS011;11507;44.858;10.374;2024-03-29T03:32:37;87.15;;;15.55;;
22679;SDS011;11507;44.858;10.374;2024-03-29T03:35:03;68.47;;;15.70;;
22679;SDS011;11507;44.858;10.374;2024-03-29T03:37:30;38.33;;;15.00;;
22679;SDS011;11507;44.858;10.374;2024-03-29T03:39:56;39.35;;;15.40;;
22679;SDS011;11507;44.858;10.374;2024-03-29T03:42:22;28.02;;;15.45;;
22679;SDS011;11507;44.858;10.374;2024-03-29T03:44:48;37.20;;;17.98;;
22679;SDS011;11507;44.858;10.374;2024-03-29T03:47:14;109.35;;;18.17;;
22679;SDS011;11507;44.858;10.374;2024-03-29T03:49:41;29.83;;;15.88;;
22679;SDS011;11507;44.858;10.374;2024-03-29T03:52:07;41.90;;;17.55;;
22679;SDS011;11507;44.858;10.374;2024-03-29T03:54:33;69.75;;;18.20;;
22679;SDS011;11507;44.858;10.374;2024-03-29T03:57:00;119.45;;;20.65;;
22679;SDS011;11507;44.858;10.374;2024-03-29T03:59:26;77.57;;;18.58;;
22679;SDS011;11507;44.858;10.374;2024-03-29T04:01:52;60.08;;;19.70;;
22679;SDS011;11507;44.858;10.374;2024-03-29T04:04:19;52.13;;;18.40;;
22679;SDS011;11507;44.858;10.374;2024-03-29T04:06:46;40.00;;;17.70;;
22679;SDS011;11507;44.858;10.374;2024-03-29T04:09:15;54.00;;;18.92;;
22679;SDS011;11507;44.858;10.374;2024-03-29T04:11:41;32.60;;;17.45;;
22679;SDS011;11507;44.858;10.374;2024-03-29T04:14:08;40.92;;;18.83;;
22679;SDS011;11507;44.858;10.374;2024-03-29T04:16:35;45.38;;;19.45;;
22679;SDS011;11507;44.858;10.374;2024-03-29T04:19:01;35.15;;;18.10;;
22679;SDS011;11507;44.858;10.374;2024-03-29T04:21:27;35.50;;;17.85;;
22679;SDS011;11507;44.858;10.374;2024-03-29T04:23:53;36.03;;;17.90;;
22679;SDS011;11507;44.858;10.374;2024-03-29T04:26:20;39.72;;;20.50;;
22679;SDS011;11507;44.858;10.374;2024-03-29T04:28:46;40.30;;;20.77;;
22679;SDS011;11507;44.858;10.374;2024-03-29T04:31:12;33.15;;;18.50;;
22679;SDS011;11507;44.858;10.374;2024-03-29T04:33:38;36.47;;;20.42;;
22679;SDS011;11507;44.858;10.374;2024-03-29T04:36:05;42.63;;;22.48;;
22679;SDS011;11507;44.858;10.374;2024-03-29T04:38:31;39.65;;;20.95;;
22679;SDS011;11507;44.858;10.374;2024-03-29T04:40:58;38.38;;;20.10;;
22679;SDS011;11507;44.858;10.374;2024-03-29T04:43:25;42.83;;;21.65;;
22679;SDS011;11507;44.858;10.374;2024-03-29T04:46:08;42.38;;;21.50;;
22679;SDS011;11507;44.858;10.374;2024-03-29T04:48:39;53.03;;;25.65;;
22679;SDS011;11507;44.858;10.374;2024-03-29T04:51:07;50.22;;;26.13;;
22679;SDS011;11507;44.858;10.374;2024-03-29T04:53:37;57.50;;;28.20;;
22679;SDS011;11507;44.858;10.374;2024-03-29T04:56:04;57.45;;;28.15;;
22679;SDS011;11507;44.858;10.374;2024-03-29T04:58:31;59.33;;;29.35;;
22679;SDS011;11507;44.858;10.374;2024-03-29T05:00:58;60.42;;;30.40;;
22679;SDS011;11507;44.858;10.374;2024-03-29T05:03:24;63.33;;;31.48;;
22679;SDS011;11507;44.858;10.374;2024-03-29T05:05:51;62.08;;;30.67;;
22679;SDS011;11507;44.858;10.374;2024-03-29T05:08:18;61.17;;;29.92;;
22679;SDS011;11507;44.858;10.374;2024-03-29T05:10:45;53.63;;;28.67;;
22679;SDS011;11507;44.858;10.374;2024-03-29T05:13:12;59.05;;;29.45;;
22679;SDS011;11507;44.858;10.374;2024-03-29T05:15:38;59.83;;;30.25;;
22679;SDS011;11507;44.858;10.374;2024-03-29T05:18:04;56.83;;;29.27;;
22679;SDS011;11507;44.858;10.374;2024-03-29T05:20:31;57.60;;;28.95;;
22679;SDS011;11507;44.858;10.374;2024-03-29T05:22:58;55.58;;;29.50;;
22679;SDS011;11507;44.858;10.374;2024-03-29T05:25:24;54.95;;;29.35;;
22679;SDS011;11507;44.858;10.374;2024-03-29T05:27:51;57.13;;;29.10;;
22679;SDS011;11507;44.858;10.374;2024-03-29T05:30:17;58.63;;;29.98;;
22679;SDS011;11507;44.858;10.374;2024-03-29T05:32:44;63.28;;;31.60;;
22679;SDS011;11507;44.858;10.374;2024-03-29T05:35:10;63.47;;;31.88;;
22679;SDS011;11507;44.858;10.374;2024-03-29T05:37:37;65.75;;;32.67;;
22679;SDS011;11507;44.858;10.374;2024-03-29T05:40:03;64.93;;;32.45;;
22679;SDS011;11507;44.858;10.374;2024-03-29T05:42:32;66.82;;;33.58;;
22679;SDS011;11507;44.858;10.374;2024-03-29T05:44:59;62.60;;;31.75;;
22679;SDS011;11507;44.858;10.374;2024-03-29T05:47:25;59.80;;;31.40;;
22679;SDS011;11507;44.858;10.374;2024-03-29T05:49:53;68.90;;;36.10;;
22679;SDS011;11507;44.858;10.374;2024-03-29T05:52:19;68.10;;;34.15;;
22679;SDS011;11507;44.858;10.374;2024-03-29T05:54:49;68.13;;;35.67;;
22679;SDS011;11507;44.858;10.374;2024-03-29T05:57:15;79.72;;;37.38;;
22679;SDS011;11507;44.858;10.374;2024-03-29T05:59:42;80.78;;;37.85;;
22679;SDS011;11507;44.858;10.374;2024-03-29T06:02:08;74.97;;;37.72;;
22679;SDS011;11507;44.858;10.374;2024-03-29T06:04:34;79.97;;;37.22;;
22679;SDS011;11507;44.858;10.374;2024-03-29T06:07:04;84.88;;;39.30;;
22679;SDS011;11507;44.858;10.374;2024-03-29T06:09:32;84.25;;;38.95;;
22679;SDS011;11507;44.858;10.374;2024-03-29T06:11:59;82.70;;;38.95;;
22679;SDS011;11507;44.858;10.374;2024-03-29T06:14:25;83.85;;;38.45;;
22679;SDS011;11507;44.858;10.374;2024-03-29T06:17:10;80.30;;;38.72;;
22679;SDS011;11507;44.858;10.374;2024-03-29T06:19:49;87.88;;;41.40;;
22679;SDS011;11507;44.858;10.374;2024-03-29T06:22:27;95.20;;;41.42;;
22679;SDS011;11507;44.858;10.374;2024-03-29T06:24:55;93.15;;;42.28;;
22679;SDS011;11507;44.858;10.374;2024-03-29T06:27:33;101.47;;;44.70;;
22679;SDS011;11507;44.858;10.374;2024-03-29T06:30:01;93.55;;;42.33;;
22679;SDS011;11507;44.858;10.374;2024-03-29T06:32:29;104.53;;;46.80;;
22679;SDS011;11507;44.858;10.374;2024-03-29T06:34:56;99.50;;;46.47;;
22679;SDS011;11507;44.858;10.374;2024-03-29T06:37:24;98.38;;;45.28;;
22679;SDS011;11507;44.858;10.374;2024-03-29T06:39:51;99.57;;;46.10;;
22679;SDS011;11507;44.858;10.374;2024-03-29T06:42:18;100.85;;;44.53;;
22679;SDS011;11507;44.858;10.374;2024-03-29T06:44:45;106.32;;;46.33;;
22679;SDS011;11507;44.858;10.374;2024-03-29T06:47:11;102.05;;;45.08;;
22679;SDS011;11507;44.858;10.374;2024-03-29T06:52:04;89.20;;;39.75;;
22679;SDS011;11507;44.858;10.374;2024-03-29T06:54:30;94.28;;;43.65;;
22679;SDS011;11507;44.858;10.374;2024-03-29T06:56:58;100.85;;;45.13;;
22679;SDS011;11507;44.858;10.374;2024-03-29T06:59:25;95.18;;;44.70;;
22679;SDS011;11507;44.858;10.374;2024-03-29T07:01:52;95.60;;;43.83;;
22679;SDS011;11507;44.858;10.374;2024-03-29T07:04:19;91.55;;;44.22;;
22679;SDS011;11507;44.858;10.374;2024-03-29T07:06:45;87.25;;;42.05;;
22679;SDS011;11507;44.858;10.374;2024-03-29T07:09:18;88.22;;;42.17;;
22679;SDS011;11507;44.858;10.374;2024-03-29T07:11:49;87.18;;;42.47;;
22679;SDS011;11507;44.858;10.374;2024-03-29T07:14:17;94.20;;;43.50;;
22679;SDS011;11507;44.858;10.374;2024-03-29T07:16:44;88.72;;;42.25;;
22679;SDS011;11507;44.858;10.374;2024-03-29T07:19:11;85.05;;;41.13;;
22679;SDS011;11507;44.858;10.374;2024-03-29T07:21:45;84.22;;;41.08;;
22679;SDS011;11507;44.858;10.374;2024-03-29T07:24:12;85.72;;;42.03;;
22679;SDS011;11507;44.858;10.374;2024-03-29T07:26:38;91.28;;;43.42;;
22679;SDS011;11507;44.858;10.374;2024-03-29T07:29:05;82.20;;;41.13;;
22679;SDS011;11507;44.858;10.374;2024-03-29T07:31:35;84.40;;;42.90;;
22679;SDS011;11507;44.858;10.374;2024-03-29T07:34:01;87.38;;;42.17;;
22679;SDS011;11507;44.858;10.374;2024-03-29T07:36:27;85.15;;;42.08;;
22679;SDS011;11507;44.858;10.374;2024-03-29T07:38:59;75.38;;;40.63;;
22679;SDS011;11507;44.858;10.374;2024-03-29T07:41:26;81.85;;;40.55;;
22679;SDS011;11507;44.858;10.374;2024-03-29T07:43:53;75.68;;;40.65;;
22679;SDS011;11507;44.858;10.374;2024-03-29T07:48:57;76.13;;;39.28;;
22679;SDS011;11507;44.858;10.374;2024-03-29T07:51:23;74.20;;;40.80;;
22679;SDS011;11507;44.858;10.374;2024-03-29T07:53:50;74.25;;;39.90;;
22679;SDS011;11507;44.858;10.374;2024-03-29T07:56:17;71.82;;;38.75;;
22679;SDS011;11507;44.858;10.374;2024-03-29T07:58:43;77.63;;;40.72;;
22679;SDS011;11507;44.858;10.374;2024-03-29T08:01:09;73.43;;;38.72;;
22679;SDS011;11507;44.858;10.374;2024-03-29T08:03:36;76.28;;;39.88;;
22679;SDS011;11507;44.858;10.374;2024-03-29T08:06:02;70.43;;;38.83;;
22679;SDS011;11507;44.858;10.374;2024-03-29T08:08:32;71.18;;;38.05;;
22679;SDS011;11507;44.858;10.374;2024-03-29T08:10:59;70.15;;;38.70;;
22679;SDS011;11507;44.858;10.374;2024-03-29T08:13:26;65.35;;;37.75;;
22679;SDS011;11507;44.858;10.374;2024-03-29T08:15:59;64.70;;;36.88;;
22679;SDS011;11507;44.858;10.374;2024-03-29T08:18:26;67.35;;;39.20;;
22679;SDS011;11507;44.858;10.374;2024-03-29T08:20:54;65.93;;;37.53;;
22679;SDS011;11507;44.858;10.374;2024-03-29T08:23:24;67.72;;;38.85;;
22679;SDS011;11507;44.858;10.374;2024-03-29T08:25:51;66.10;;;37.33;;
22679;SDS011;11507;44.858;10.374;2024-03-29T08:28:18;66.40;;;38.17;;
22679;SDS011;11507;44.858;10.374;2024-03-29T08:30:44;66.15;;;38.88;;
22679;SDS011;11507;44.858;10.374;2024-03-29T08:33:11;64.80;;;37.95;;
22679;SDS011;11507;44.858;10.374;2024-03-29T08:35:37;66.65;;;38.90;;
22679;SDS011;11507;44.858;10.374;2024-03-29T08:38:08;64.85;;;38.33;;
22679;SDS011;11507;44.858;10.374;2024-03-29T08:40:35;61.20;;;36.15;;
22679;SDS011;11507;44.858;10.374;2024-03-29T08:43:03;62.30;;;36.80;;
22679;SDS011;11507;44.858;10.374;2024-03-29T08:45:30;59.50;;;35.63;;
22679;SDS011;11507;44.858;10.374;2024-03-29T08:47:56;61.45;;;36.42;;
22679;SDS011;11507;44.858;10.374;2024-03-29T08:50:22;61.13;;;35.53;;
22679;SDS011;11507;44.858;10.374;2024-03-29T08:52:48;56.55;;;36.22;;
22679;SDS011;11507;44.858;10.374;2024-03-29T08:55:15;57.28;;;34.90;;
22679;SDS011;11507;44.858;10.374;2024-03-29T08:57:41;57.97;;;35.45;;
22679;SDS011;11507;44.858;10.374;2024-03-29T09:00:08;55.63;;;34.42;;
22679;SDS011;11507;44.858;10.374;2024-03-29T09:02:34;58.70;;;35.45;;
22679;SDS011;11507;44.858;10.374;2024-03-29T09:05:01;54.20;;;33.22;;
22679;SDS011;11507;44.858;10.374;2024-03-29T09:07:27;56.40;;;34.22;;
22679;SDS011;11507;44.858;10.374;2024-03-29T09:09:54;56.15;;;33.33;;
22679;SDS011;11507;44.858;10.374;2024-03-29T09:12:20;52.65;;;33.30;;
22679;SDS011;11507;44.858;10.374;2024-03-29T09:14:47;52.45;;;33.15;;
22679;SDS011;11507;44.858;10.374;2024-03-29T09:17:13;55.75;;;34.15;;
22679;SDS011;11507;44.858;10.374;2024-03-29T09:19:39;54.60;;;33.38;;
22679;SDS011;11507;44.858;10.374;2024-03-29T09:22:07;54.00;;;33.83;;
22679;SDS011;11507;44.858;10.374;2024-03-29T09:24:33;55.40;;;34.03;;
22679;SDS011;11507;44.858;10.374;2024-03-29T09:27:01;52.70;;;32.90;;
22679;SDS011;11507;44.858;10.374;2024-03-29T09:29:28;51.13;;;32.60;;
22679;SDS011;11507;44.858;10.374;2024-03-29T09:31:54;53.85;;;33.17;;
22679;SDS011;11507;44.858;10.374;2024-03-29T09:34:22;54.22;;;33.30;;
22679;SDS011;11507;44.858;10.374;2024-03-29T09:36:49;57.53;;;33.00;;
22679;SDS011;11507;44.858;10.374;2024-03-29T09:39:15;51.20;;;32.72;;
22679;SDS011;11507;44.858;10.374;2024-03-29T09:41:43;53.50;;;32.63;;
22679;SDS011;11507;44.858;10.374;2024-03-29T09:44:11;52.45;;;33.22;;
22679;SDS011;11507;44.858;10.374;2024-03-29T09:46:38;50.65;;;33.40;;
22679;SDS011;11507;44.858;10.374;2024-03-29T09:49:07;53.95;;;33.33;;
22679;SDS011;11507;44.858;10.374;2024-03-29T09:51:36;54.97;;;33.92;;
22679;SDS011;11507;44.858;10.374;2024-03-29T09:54:04;54.30;;;32.83;;
22679;SDS011;11507;44.858;10.374;2024-03-29T09:56:33;54.35;;;33.85;;
22679;SDS011;11507;44.858;10.374;2024-03-29T09:59:00;55.92;;;33.60;;
22679;SDS011;11507;44.858;10.374;2024-03-29T10:01:27;57.10;;;35.70;;
22679;SDS011;11507;44.858;10.374;2024-03-29T10:03:56;58.17;;;33.33;;
22679;SDS011;11507;44.858;10.374;2024-03-29T10:06:26;52.10;;;33.70;;
22679;SDS011;11507;44.858;10.374;2024-03-29T10:08:57;49.63;;;32.88;;
22679;SDS011;11507;44.858;10.374;2024-03-29T10:11:23;55.28;;;34.15;;
22679;SDS011;11507;44.858;10.374;2024-03-29T10:13:50;54.80;;;35.30;;
22679;SDS011;11507;44.858;10.374;2024-03-29T10:16:19;53.33;;;33.80;;
22679;SDS011;11507;44.858;10.374;2024-03-29T10:18:52;49.75;;;33.65;;
22679;SDS011;11507;44.858;10.374;2024-03-29T10:21:24;53.67;;;35.22;;
22679;SDS011;11507;44.858;10.374;2024-03-29T10:23:52;51.78;;;33.80;;
22679;SDS011;11507;44.858;10.374;2024-03-29T10:26:18;52.92;;;33.13;;
22679;SDS011;11507;44.858;10.374;2024-03-29T10:28:46;53.47;;;33.10;;
22679;SDS011;11507;44.858;10.374;2024-03-29T10:31:14;50.15;;;31.75;;
22679;SDS011;11507;44.858;10.374;2024-03-29T10:33:43;46.42;;;30.17;;
22679;SDS011;11507;44.858;10.374;2024-03-29T10:36:13;46.45;;;28.65;;
22679;SDS011;11507;44.858;10.374;2024-03-29T10:38:40;45.53;;;29.73;;
22679;SDS011;11507;44.858;10.374;2024-03-29T10:41:07;45.40;;;28.80;;
22679;SDS011;11507;44.858;10.374;2024-03-29T10:43:34;47.80;;;30.15;;
22679;SDS011;11507;44.858;10.374;2024-03-29T10:46:00;52.42;;;30.60;;
22679;SDS011;11507;44.858;10.374;2024-03-29T10:48:27;48.10;;;30.58;;
22679;SDS011;11507;44.858;10.374;2024-03-29T10:50:54;47.22;;;30.00;;
22679;SDS011;11507;44.858;10.374;2024-03-29T10:53:26;47.97;;;30.73;;
22679;SDS011;11507;44.858;10.374;2024-03-29T10:55:59;46.47;;;29.80;;
22679;SDS011;11507;44.858;10.374;2024-03-29T10:58:29;46.25;;;28.35;;
22679;SDS011;11507;44.858;10.374;2024-03-29T11:00:59;46.67;;;28.95;;
22679;SDS011;11507;44.858;10.374;2024-03-29T11:03:35;43.45;;;28.05;;
22679;SDS011;11507;44.858;10.374;2024-03-29T11:06:06;41.67;;;27.63;;
22679;SDS011;11507;44.858;10.374;2024-03-29T11:08:33;41.72;;;27.45;;
22679;SDS011;11507;44.858;10.374;2024-03-29T11:11:04;38.78;;;26.38;;
22679;SDS011;11507;44.858;10.374;2024-03-29T11:13:38;40.25;;;27.77;;
22679;SDS011;11507;44.858;10.374;2024-03-29T11:18:47;40.28;;;25.73;;
22679;SDS011;11507;44.858;10.374;2024-03-29T11:21:14;40.55;;;26.20;;
22679;SDS011;11507;44.858;10.374;2024-03-29T11:23:49;41.78;;;26.25;;
22679;SDS011;11507;44.858;10.374;2024-03-29T11:26:16;39.05;;;27.02;;
22679;SDS011;11507;44.858;10.374;2024-03-29T11:28:48;40.78;;;27.17;;
22679;SDS011;11507;44.858;10.374;2024-03-29T11:31:15;45.65;;;27.77;;
22679;SDS011;11507;44.858;10.374;2024-03-29T11:36:11;45.75;;;27.92;;
22679;SDS011;11507;44.858;10.374;2024-03-29T11:38:47;44.15;;;28.48;;
22679;SDS011;11507;44.858;10.374;2024-03-29T11:41:18;40.17;;;26.33;;
22679;SDS011;11507;44.858;10.374;2024-03-29T11:43:50;42.47;;;26.87;;
22679;SDS011;11507;44.858;10.374;2024-03-29T11:46:17;40.95;;;27.77;;
22679;SDS011;11507;44.858;10.374;2024-03-29T11:48:45;41.33;;;27.02;;
22679;SDS011;11507;44.858;10.374;2024-03-29T11:51:17;39.40;;;25.75;;
22679;SDS011;11507;44.858;10.374;2024-03-29T11:53:48;39.15;;;24.85;;
22679;SDS011;11507;44.858;10.374;2024-03-29T11:56:16;40.28;;;25.45;;
22679;SDS011;11507;44.858;10.374;2024-03-29T11:58:44;41.47;;;25.10;;
22679;SDS011;11507;44.858;10.374;2024-03-29T12:01:11;39.00;;;24.92;;
22679;SDS011;11507;44.858;10.374;2024-03-29T12:03:40;36.90;;;24.38;;
22679;SDS011;11507;44.858;10.374;2024-03-29T12:06:08;39.05;;;25.25;;
22679;SDS011;11507;44.858;10.374;2024-03-29T12:08:35;40.17;;;25.15;;
22679;SDS011;11507;44.858;10.374;2024-03-29T12:11:04;38.53;;;25.17;;
22679;SDS011;11507;44.858;10.374;2024-03-29T12:13:32;35.60;;;23.35;;
22679;SDS011;11507;44.858;10.374;2024-03-29T12:15:58;33.20;;;22.77;;
22679;SDS011;11507;44.858;10.374;2024-03-29T12:18:26;38.13;;;23.33;;
22679;SDS011;11507;44.858;10.374;2024-03-29T12:21:00;37.50;;;23.45;;
22679;SDS011;11507;44.858;10.374;2024-03-29T12:23:28;34.30;;;22.85;;
22679;SDS011;11507;44.858;10.374;2024-03-29T12:25:55;32.08;;;21.42;;
22679;SDS011;11507;44.858;10.374;2024-03-29T12:28:23;28.75;;;20.85;;
22679;SDS011;11507;44.858;10.374;2024-03-29T12:30:51;31.38;;;21.80;;
22679;SDS011;11507;44.858;10.374;2024-03-29T12:33:19;29.88;;;20.55;;
22679;SDS011;11507;44.858;10.374;2024-03-29T12:35:46;33.65;;;21.25;;
22679;SDS011;11507;44.858;10.374;2024-03-29T12:38:15;33.00;;;22.98;;
22679;SDS011;11507;44.858;10.374;2024-03-29T12:40:42;30.35;;;20.83;;
22679;SDS011;11507;44.858;10.374;2024-03-29T12:43:10;32.13;;;21.27;;
22679;SDS011;11507;44.858;10.374;2024-03-29T12:45:38;30.38;;;21.92;;
22679;SDS011;11507;44.858;10.374;2024-03-29T12:48:19;34.85;;;22.02;;
22679;SDS011;11507;44.858;10.374;2024-03-29T12:50:46;35.65;;;22.33;;
22679;SDS011;11507;44.858;10.374;2024-03-29T12:53:13;33.33;;;22.88;;
22679;SDS011;11507;44.858;10.374;2024-03-29T12:55:41;35.60;;;22.27;;
22679;SDS011;11507;44.858;10.374;2024-03-29T12:58:15;34.60;;;22.25;;
22679;SDS011;11507;44.858;10.374;2024-03-29T13:00:43;30.92;;;21.05;;
22679;SDS011;11507;44.858;10.374;2024-03-29T13:03:10;31.17;;;21.15;;
22679;SDS011;11507;44.858;10.374;2024-03-29T13:05:38;33.88;;;22.05;;
22679;SDS011;11507;44.858;10.374;2024-03-29T13:08:12;33.65;;;21.85;;
22679;SDS011;11507;44.858;10.374;2024-03-29T13:10:42;36.95;;;24.98;;
22679;SDS011;11507;44.858;10.374;2024-03-29T13:13:09;42.75;;;25.98;;
22679;SDS011;11507;44.858;10.374;2024-03-29T13:15:37;38.92;;;25.13;;
22679;SDS011;11507;44.858;10.374;2024-03-29T13:18:05;38.97;;;25.35;;
22679;SDS011;11507;44.858;10.374;2024-03-29T13:20:33;38.38;;;25.83;;
22679;SDS011;11507;44.858;10.374;2024-03-29T13:23:06;36.42;;;25.98;;
22679;SDS011;11507;44.858;10.374;2024-03-29T13:25:32;36.38;;;25.33;;
22679;SDS011;11507;44.858;10.374;2024-03-29T13:27:58;37.55;;;24.33;;
22679;SDS011;11507;44.858;10.374;2024-03-29T13:30:25;34.80;;;24.02;;
22679;SDS011;11507;44.858;10.374;2024-03-29T13:32:52;39.10;;;26.08;;
22679;SDS011;11507;44.858;10.374;2024-03-29T13:35:19;41.45;;;25.10;;
22679;SDS011;11507;44.858;10.374;2024-03-29T13:37:49;43.50;;;25.40;;
22679;SDS011;11507;44.858;10.374;2024-03-29T13:40:17;39.63;;;24.90;;
22679;SDS011;11507;44.858;10.374;2024-03-29T13:42:47;37.33;;;24.23;;
22679;SDS011;11507;44.858;10.374;2024-03-29T13:45:14;39.10;;;25.48;;
22679;SDS011;11507;44.858;10.374;2024-03-29T13:47:42;37.35;;;25.13;;
22679;SDS011;11507;44.858;10.374;2024-03-29T13:50:11;37.28;;;24.85;;
22679;SDS011;11507;44.858;10.374;2024-03-29T13:52:40;39.38;;;25.88;;
22679;SDS011;11507;44.858;10.374;2024-03-29T13:55:07;37.88;;;26.00;;
22679;SDS011;11507;44.858;10.374;2024-03-29T13:57:33;39.67;;;26.08;;
22679;SDS011;11507;44.858;10.374;2024-03-29T13:59:59;41.53;;;26.45;;
22679;SDS011;11507;44.858;10.374;2024-03-29T14:02:26;38.80;;;27.17;;
22679;SDS011;11507;44.858;10.374;2024-03-29T14:04:53;42.60;;;27.25;;
22679;SDS011;11507;44.858;10.374;2024-03-29T14:07:20;41.20;;;26.20;;
22679;SDS011;11507;44.858;10.374;2024-03-29T14:09:50;44.22;;;27.63;;
22679;SDS011;11507;44.858;10.374;2024-03-29T14:12:16;44.55;;;28.08;;
22679;SDS011;11507;44.858;10.374;2024-03-29T14:14:45;44.00;;;27.73;;
22679;SDS011;11507;44.858;10.374;2024-03-29T14:17:14;43.65;;;28.15;;
22679;SDS011;11507;44.858;10.374;2024-03-29T14:19:41;41.63;;;28.02;;
22679;SDS011;11507;44.858;10.374;2024-03-29T14:22:07;41.05;;;28.17;;
22679;SDS011;11507;44.858;10.374;2024-03-29T14:24:35;39.30;;;26.58;;